sensor_id;sensor_type;location;lat;lon;timestamp;temperature;humidity
8709;DHT22;4391;48.678;9.280;2024-03-07T00:02:09;5.20;99.90
8709;DHT22;4391;48.678;9.280;2024-03-07T00:04:36;5.10;99.90
8709;DHT22;4391;48.678;9.280;2024-03-07T00:07:04;5.10;99.90
8709;DHT22;4391;48.678;9.280;2024-03-07T00:09:32;5.10;99.90
8709;DHT22;4391;48.678;9.280;2024-03-07T00:12:00;5.10;99.90
8709;DHT22;4391;48.678;9.280;2024-03-07T00:14:27;5.10;99.90
8709;DHT22;4391;48.678;9.280;2024-03-07T00:16:54;5.10;99.90
8709;DHT22;4391;48.678;9.280;2024-03-07T00:19:23;5.10;99.90
8709;DHT22;4391;48.678;9.280;2024-03-07T00:21:52;5.10;99.90
8709;DHT22;4391;48.678;9.280;2024-03-07T00:24:19;5.10;99.90
8709;DHT22;4391;48.678;9.280;2024-03-07T00:26:46;5.00;99.90
8709;DHT22;4391;48.678;9.280;2024-03-07T00:29:15;5.00;99.90
8709;DHT22;4391;48.678;9.280;2024-03-07T00:31:43;4.90;99.90
8709;DHT22;4391;48.678;9.280;2024-03-07T00:34:11;4.90;99.90
8709;DHT22;4391;48.678;9.280;2024-03-07T00:36:40;4.80;99.90
8709;DHT22;4391;48.678;9.280;2024-03-07T00:39:07;4.70;99.90
8709;DHT22;4391;48.678;9.280;2024-03-07T00:41:37;4.70;99.90
8709;DHT22;4391;48.678;9.280;2024-03-07T00:44:04;4.60;99.90
8709;DHT22;4391;48.678;9.280;2024-03-07T00:46:31;4.60;99.90
8709;DHT22;4391;48.678;9.280;2024-03-07T00:48:58;4.50;99.90
8709;DHT22;4391;48.678;9.280;2024-03-07T00:51:25;4.50;99.90
8709;DHT22;4391;48.678;9.280;2024-03-07T00:53:54;4.40;99.90
8709;DHT22;4391;48.678;9.280;2024-03-07T00:56:21;4.40;99.90
8709;DHT22;4391;48.678;9.280;2024-03-07T00:58:48;4.30;99.90
8709;DHT22;4391;48.678;9.280;2024-03-07T01:01:15;4.30;99.90
8709;DHT22;4391;48.678;9.280;2024-03-07T01:03:44;4.20;99.90
8709;DHT22;4391;48.678;9.280;2024-03-07T01:06:11;4.10;99.90
8709;DHT22;4391;48.678;9.280;2024-03-07T01:08:38;4.10;99.90
8709;DHT22;4391;48.678;9.280;2024-03-07T01:11:06;4.00;99.90
8709;DHT22;4391;48.678;9.280;2024-03-07T01:13:35;4.00;99.90
8709;DHT22;4391;48.678;9.280;2024-03-07T01:16:02;3.90;99.90
8709;DHT22;4391;48.678;9.280;2024-03-07T01:18:29;3.80;99.90
8709;DHT22;4391;48.678;9.280;2024-03-07T01:20:57;3.80;99.90
8709;DHT22;4391;48.678;9.280;2024-03-07T01:23:24;3.70;99.90
8709;DHT22;4391;48.678;9.280;2024-03-07T01:25:50;3.70;99.90
8709;DHT22;4391;48.678;9.280;2024-03-07T01:28:19;3.60;99.90
8709;DHT22;4391;48.678;9.280;2024-03-07T01:30:45;3.60;99.90
8709;DHT22;4391;48.678;9.280;2024-03-07T01:33:12;3.50;99.90
8709;DHT22;4391;48.678;9.280;2024-03-07T01:35:39;3.50;99.90
8709;DHT22;4391;48.678;9.280;2024-03-07T01:38:06;3.50;99.90
8709;DHT22;4391;48.678;9.280;2024-03-07T01:40:34;3.40;99.90
8709;DHT22;4391;48.678;9.280;2024-03-07T01:43:01;3.40;99.90
8709;DHT22;4391;48.678;9.280;2024-03-07T01:45:29;3.40;99.90
8709;DHT22;4391;48.678;9.280;2024-03-07T01:47:56;3.30;99.90
8709;DHT22;4391;48.678;9.280;2024-03-07T01:50:23;3.30;99.90
8709;DHT22;4391;48.678;9.280;2024-03-07T01:52:51;3.30;99.90
8709;DHT22;4391;48.678;9.280;2024-03-07T01:55:21;3.20;99.90
8709;DHT22;4391;48.678;9.280;2024-03-07T01:57:49;3.20;99.90
8709;DHT22;4391;48.678;9.280;2024-03-07T02:00:16;3.20;99.90
8709;DHT22;4391;48.678;9.280;2024-03-07T02:02:45;3.10;99.90
8709;DHT22;4391;48.678;9.280;2024-03-07T02:05:12;3.00;99.90
8709;DHT22;4391;48.678;9.280;2024-03-07T02:07:40;3.10;99.90
8709;DHT22;4391;48.678;9.280;2024-03-07T02:10:07;3.20;99.90
8709;DHT22;4391;48.678;9.280;2024-03-07T02:12:35;3.00;99.90
8709;DHT22;4391;48.678;9.280;2024-03-07T02:15:03;3.00;99.90
8709;DHT22;4391;48.678;9.280;2024-03-07T02:17:30;3.00;99.90
8709;DHT22;4391;48.678;9.280;2024-03-07T02:19:58;2.90;99.90
8709;DHT22;4391;48.678;9.280;2024-03-07T02:22:27;2.90;99.90
8709;DHT22;4391;48.678;9.280;2024-03-07T02:24:53;2.90;99.90
8709;DHT22;4391;48.678;9.280;2024-03-07T02:27:20;2.90;99.90
8709;DHT22;4391;48.678;9.280;2024-03-07T02:29:47;2.90;99.90
8709;DHT22;4391;48.678;9.280;2024-03-07T02:32:14;3.00;99.90
8709;DHT22;4391;48.678;9.280;2024-03-07T02:34:41;2.90;99.90
8709;DHT22;4391;48.678;9.280;2024-03-07T02:37:09;2.90;99.90
8709;DHT22;4391;48.678;9.280;2024-03-07T02:39:37;2.80;99.90
8709;DHT22;4391;48.678;9.280;2024-03-07T02:42:06;2.70;99.90
8709;DHT22;4391;48.678;9.280;2024-03-07T02:44:33;2.60;99.90
8709;DHT22;4391;48.678;9.280;2024-03-07T02:47:00;2.40;99.90
8709;DHT22;4391;48.678;9.280;2024-03-07T02:49:29;2.30;99.90
8709;DHT22;4391;48.678;9.280;2024-03-07T02:51:56;2.20;99.90
8709;DHT22;4391;48.678;9.280;2024-03-07T02:54:23;2.10;99.90
8709;DHT22;4391;48.678;9.280;2024-03-07T02:56:51;2.00;99.90
8709;DHT22;4391;48.678;9.280;2024-03-07T02:59:18;1.90;99.90
8709;DHT22;4391;48.678;9.280;2024-03-07T03:01:45;1.80;99.90
8709;DHT22;4391;48.678;9.280;2024-03-07T03:04:11;1.80;99.90
8709;DHT22;4391;48.678;9.280;2024-03-07T03:06:38;1.70;99.90
8709;DHT22;4391;48.678;9.280;2024-03-07T03:09:05;1.70;99.90
8709;DHT22;4391;48.678;9.280;2024-03-07T03:11:32;1.60;99.90
8709;DHT22;4391;48.678;9.280;2024-03-07T03:14:01;1.60;99.90
8709;DHT22;4391;48.678;9.280;2024-03-07T03:16:27;1.60;99.90
8709;DHT22;4391;48.678;9.280;2024-03-07T03:18:56;1.50;99.90
8709;DHT22;4391;48.678;9.280;2024-03-07T03:21:23;1.50;99.90
8709;DHT22;4391;48.678;9.280;2024-03-07T03:23:50;1.30;99.90
8709;DHT22;4391;48.678;9.280;2024-03-07T03:26:20;1.30;99.90
8709;DHT22;4391;48.678;9.280;2024-03-07T03:28:47;1.30;99.90
8709;DHT22;4391;48.678;9.280;2024-03-07T03:31:15;1.20;99.90
8709;DHT22;4391;48.678;9.280;2024-03-07T03:33:42;1.20;99.90
8709;DHT22;4391;48.678;9.280;2024-03-07T03:36:09;1.10;99.90
8709;DHT22;4391;48.678;9.280;2024-03-07T03:38:36;1.10;99.90
8709;DHT22;4391;48.678;9.280;2024-03-07T03:41:03;1.10;99.90
8709;DHT22;4391;48.678;9.280;2024-03-07T03:43:33;1.10;99.90
8709;DHT22;4391;48.678;9.280;2024-03-07T03:46:00;1.10;99.90
8709;DHT22;4391;48.678;9.280;2024-03-07T03:48:29;1.10;99.90
8709;DHT22;4391;48.678;9.280;2024-03-07T03:50:56;1.10;99.90
8709;DHT22;4391;48.678;9.280;2024-03-07T03:53:23;1.10;99.90
8709;DHT22;4391;48.678;9.280;2024-03-07T03:55:49;1.10;99.90
8709;DHT22;4391;48.678;9.280;2024-03-07T03:58:16;1.00;99.90
8709;DHT22;4391;48.678;9.280;2024-03-07T04:00:43;1.00;99.90
8709;DHT22;4391;48.678;9.280;2024-03-07T04:03:10;0.90;99.90
8709;DHT22;4391;48.678;9.280;2024-03-07T04:05:38;0.90;99.90
8709;DHT22;4391;48.678;9.280;2024-03-07T04:08:06;0.80;99.90
8709;DHT22;4391;48.678;9.280;2024-03-07T04:10:35;0.80;99.90
8709;DHT22;4391;48.678;9.280;2024-03-07T04:13:02;0.80;99.90
8709;DHT22;4391;48.678;9.280;2024-03-07T04:15:29;0.80;99.90
8709;DHT22;4391;48.678;9.280;2024-03-07T04:17:58;0.70;99.90
8709;DHT22;4391;48.678;9.280;2024-03-07T04:20:25;0.70;99.90
8709;DHT22;4391;48.678;9.280;2024-03-07T04:22:53;0.80;99.90
8709;DHT22;4391;48.678;9.280;2024-03-07T04:27:51;0.80;99.90
8709;DHT22;4391;48.678;9.280;2024-03-07T04:30:18;0.80;99.90
8709;DHT22;4391;48.678;9.280;2024-03-07T04:32:45;0.80;99.90
8709;DHT22;4391;48.678;9.280;2024-03-07T04:35:12;0.80;99.90
8709;DHT22;4391;48.678;9.280;2024-03-07T04:37:39;0.80;99.90
8709;DHT22;4391;48.678;9.280;2024-03-07T04:40:09;0.80;99.90
8709;DHT22;4391;48.678;9.280;2024-03-07T04:42:42;0.70;99.90
8709;DHT22;4391;48.678;9.280;2024-03-07T04:45:10;0.70;99.90
8709;DHT22;4391;48.678;9.280;2024-03-07T04:47:41;0.70;99.90
8709;DHT22;4391;48.678;9.280;2024-03-07T04:50:08;0.80;99.90
8709;DHT22;4391;48.678;9.280;2024-03-07T04:52:36;0.80;99.90
8709;DHT22;4391;48.678;9.280;2024-03-07T04:55:06;0.90;99.90
8709;DHT22;4391;48.678;9.280;2024-03-07T04:57:35;0.90;99.90
8709;DHT22;4391;48.678;9.280;2024-03-07T05:00:05;1.00;99.90
8709;DHT22;4391;48.678;9.280;2024-03-07T05:02:32;1.00;99.90
8709;DHT22;4391;48.678;9.280;2024-03-07T05:04:59;1.10;99.90
8709;DHT22;4391;48.678;9.280;2024-03-07T05:07:26;1.10;99.90
8709;DHT22;4391;48.678;9.280;2024-03-07T05:09:53;1.10;99.90
8709;DHT22;4391;48.678;9.280;2024-03-07T05:12:21;1.10;99.90
8709;DHT22;4391;48.678;9.280;2024-03-07T05:14:48;1.10;99.90
8709;DHT22;4391;48.678;9.280;2024-03-07T05:17:15;1.10;99.90
8709;DHT22;4391;48.678;9.280;2024-03-07T05:19:45;1.00;99.90
8709;DHT22;4391;48.678;9.280;2024-03-07T05:22:13;1.10;99.90
8709;DHT22;4391;48.678;9.280;2024-03-07T05:24:41;1.10;99.90
8709;DHT22;4391;48.678;9.280;2024-03-07T05:27:08;1.10;99.90
8709;DHT22;4391;48.678;9.280;2024-03-07T05:29:38;1.10;99.90
8709;DHT22;4391;48.678;9.280;2024-03-07T05:32:20;1.10;99.90
8709;DHT22;4391;48.678;9.280;2024-03-07T05:34:48;1.10;99.90
8709;DHT22;4391;48.678;9.280;2024-03-07T05:37:14;1.10;99.90
8709;DHT22;4391;48.678;9.280;2024-03-07T05:39:41;1.10;99.90
8709;DHT22;4391;48.678;9.280;2024-03-07T05:42:08;1.20;99.90
8709;DHT22;4391;48.678;9.280;2024-03-07T05:44:40;1.20;99.90
8709;DHT22;4391;48.678;9.280;2024-03-07T05:47:08;1.10;99.90
8709;DHT22;4391;48.678;9.280;2024-03-07T05:49:36;1.10;99.90
8709;DHT22;4391;48.678;9.280;2024-03-07T05:52:03;1.00;99.90
8709;DHT22;4391;48.678;9.280;2024-03-07T05:54:31;1.00;99.90
8709;DHT22;4391;48.678;9.280;2024-03-07T05:56:58;0.90;99.90
8709;DHT22;4391;48.678;9.280;2024-03-07T05:59:25;0.90;99.90
8709;DHT22;4391;48.678;9.280;2024-03-07T06:01:55;0.80;99.90
8709;DHT22;4391;48.678;9.280;2024-03-07T06:04:22;0.80;99.90
8709;DHT22;4391;48.678;9.280;2024-03-07T06:06:49;0.80;99.90
8709;DHT22;4391;48.678;9.280;2024-03-07T06:09:16;0.80;99.90
8709;DHT22;4391;48.678;9.280;2024-03-07T06:11:47;0.80;99.90
8709;DHT22;4391;48.678;9.280;2024-03-07T06:14:15;0.80;99.90
8709;DHT22;4391;48.678;9.280;2024-03-07T06:16:42;0.90;99.90
8709;DHT22;4391;48.678;9.280;2024-03-07T06:19:11;0.90;99.90
8709;DHT22;4391;48.678;9.280;2024-03-07T06:21:39;0.90;99.90
8709;DHT22;4391;48.678;9.280;2024-03-07T06:24:06;1.00;99.90
8709;DHT22;4391;48.678;9.280;2024-03-07T06:26:35;1.10;99.90
8709;DHT22;4391;48.678;9.280;2024-03-07T06:29:11;1.20;99.90
8709;DHT22;4391;48.678;9.280;2024-03-07T06:31:38;1.30;99.90
8709;DHT22;4391;48.678;9.280;2024-03-07T06:34:05;1.40;99.90
8709;DHT22;4391;48.678;9.280;2024-03-07T06:36:35;1.50;99.90
8709;DHT22;4391;48.678;9.280;2024-03-07T06:39:02;1.50;99.90
8709;DHT22;4391;48.678;9.280;2024-03-07T06:41:30;1.60;99.90
8709;DHT22;4391;48.678;9.280;2024-03-07T06:43:57;1.70;99.90
8709;DHT22;4391;48.678;9.280;2024-03-07T06:46:24;1.80;99.90
8709;DHT22;4391;48.678;9.280;2024-03-07T06:48:51;1.90;99.90
8709;DHT22;4391;48.678;9.280;2024-03-07T06:51:18;1.90;99.90
8709;DHT22;4391;48.678;9.280;2024-03-07T06:53:46;2.00;99.90
8709;DHT22;4391;48.678;9.280;2024-03-07T06:56:13;2.10;99.90
8709;DHT22;4391;48.678;9.280;2024-03-07T06:58:40;2.10;99.90
8709;DHT22;4391;48.678;9.280;2024-03-07T07:01:07;2.20;99.90
8709;DHT22;4391;48.678;9.280;2024-03-07T07:03:36;2.20;99.90
8709;DHT22;4391;48.678;9.280;2024-03-07T07:06:03;2.30;99.90
8709;DHT22;4391;48.678;9.280;2024-03-07T07:08:31;2.40;99.90
8709;DHT22;4391;48.678;9.280;2024-03-07T07:11:00;2.50;99.90
8709;DHT22;4391;48.678;9.280;2024-03-07T07:13:29;2.60;99.90
8709;DHT22;4391;48.678;9.280;2024-03-07T07:15:56;2.60;99.90
8709;DHT22;4391;48.678;9.280;2024-03-07T07:18:23;2.70;99.90
8709;DHT22;4391;48.678;9.280;2024-03-07T07:20:50;2.70;99.90
8709;DHT22;4391;48.678;9.280;2024-03-07T07:23:17;2.70;84.40
8709;DHT22;4391;48.678;9.280;2024-03-07T07:25:45;2.80;69.50
8709;DHT22;4391;48.678;9.280;2024-03-07T07:28:13;2.80;67.90
8709;DHT22;4391;48.678;9.280;2024-03-07T07:30:41;2.90;51.90
8709;DHT22;4391;48.678;9.280;2024-03-07T07:33:08;3.00;37.10
8709;DHT22;4391;48.678;9.280;2024-03-07T07:35:34;3.00;23.60
8709;DHT22;4391;48.678;9.280;2024-03-07T07:38:01;3.00;16.60
8709;DHT22;4391;48.678;9.280;2024-03-07T07:40:28;3.10;8.80
8709;DHT22;4391;48.678;9.280;2024-03-07T07:42:56;3.20;20.70
8709;DHT22;4391;48.678;9.280;2024-03-07T07:45:25;3.20;6.60
8709;DHT22;4391;48.678;9.280;2024-03-07T07:47:53;3.30;12.50
8709;DHT22;4391;48.678;9.280;2024-03-07T07:50:21;3.40;14.90
8709;DHT22;4391;48.678;9.280;2024-03-07T07:52:49;3.40;1.00
8709;DHT22;4391;48.678;9.280;2024-03-07T07:55:17;3.50;1.00
8709;DHT22;4391;48.678;9.280;2024-03-07T07:57:47;3.60;1.00
8709;DHT22;4391;48.678;9.280;2024-03-07T08:00:15;3.70;1.00
8709;DHT22;4391;48.678;9.280;2024-03-07T08:02:50;3.70;1.00
8709;DHT22;4391;48.678;9.280;2024-03-07T08:05:18;3.80;1.00
8709;DHT22;4391;48.678;9.280;2024-03-07T08:07:45;3.80;1.00
8709;DHT22;4391;48.678;9.280;2024-03-07T08:10:11;3.90;1.00
8709;DHT22;4391;48.678;9.280;2024-03-07T08:12:38;3.90;1.00
8709;DHT22;4391;48.678;9.280;2024-03-07T08:15:09;4.00;1.00
8709;DHT22;4391;48.678;9.280;2024-03-07T08:17:40;4.10;1.00
8709;DHT22;4391;48.678;9.280;2024-03-07T08:20:11;4.10;1.00
8709;DHT22;4391;48.678;9.280;2024-03-07T08:22:38;4.10;1.00
8709;DHT22;4391;48.678;9.280;2024-03-07T08:25:07;4.20;1.00
8709;DHT22;4391;48.678;9.280;2024-03-07T08:27:35;4.20;1.00
8709;DHT22;4391;48.678;9.280;2024-03-07T08:30:03;4.20;1.00
8709;DHT22;4391;48.678;9.280;2024-03-07T08:32:31;4.40;1.00
8709;DHT22;4391;48.678;9.280;2024-03-07T08:34:59;4.50;1.00
8709;DHT22;4391;48.678;9.280;2024-03-07T08:37:29;4.60;1.00
8709;DHT22;4391;48.678;9.280;2024-03-07T08:39:55;4.60;1.00
8709;DHT22;4391;48.678;9.280;2024-03-07T08:42:22;4.60;99.90
8709;DHT22;4391;48.678;9.280;2024-03-07T08:44:49;4.60;99.90
8709;DHT22;4391;48.678;9.280;2024-03-07T08:47:16;4.70;99.90
8709;DHT22;4391;48.678;9.280;2024-03-07T08:49:43;4.70;99.90
8709;DHT22;4391;48.678;9.280;2024-03-07T08:52:09;4.70;99.90
8709;DHT22;4391;48.678;9.280;2024-03-07T08:54:39;4.70;99.90
8709;DHT22;4391;48.678;9.280;2024-03-07T08:57:06;4.80;99.90
8709;DHT22;4391;48.678;9.280;2024-03-07T08:59:33;4.70;99.90
8709;DHT22;4391;48.678;9.280;2024-03-07T09:02:00;4.80;1.00
8709;DHT22;4391;48.678;9.280;2024-03-07T09:04:27;4.90;99.90
8709;DHT22;4391;48.678;9.280;2024-03-07T09:06:54;4.90;99.90
8709;DHT22;4391;48.678;9.280;2024-03-07T09:09:21;5.10;99.90
8709;DHT22;4391;48.678;9.280;2024-03-07T09:11:49;5.10;99.90
8709;DHT22;4391;48.678;9.280;2024-03-07T09:14:16;5.30;99.90
8709;DHT22;4391;48.678;9.280;2024-03-07T09:16:43;5.30;99.90
8709;DHT22;4391;48.678;9.280;2024-03-07T09:19:11;5.40;99.90
8709;DHT22;4391;48.678;9.280;2024-03-07T09:21:39;5.40;99.90
8709;DHT22;4391;48.678;9.280;2024-03-07T09:24:07;5.60;99.90
8709;DHT22;4391;48.678;9.280;2024-03-07T09:26:34;5.60;1.00
8709;DHT22;4391;48.678;9.280;2024-03-07T09:29:03;5.70;99.90
8709;DHT22;4391;48.678;9.280;2024-03-07T09:31:31;5.70;1.00
8709;DHT22;4391;48.678;9.280;2024-03-07T09:33:58;5.80;99.90
8709;DHT22;4391;48.678;9.280;2024-03-07T09:36:25;5.80;99.90
8709;DHT22;4391;48.678;9.280;2024-03-07T09:38:53;5.70;1.00
8709;DHT22;4391;48.678;9.280;2024-03-07T09:41:20;5.90;1.00
8709;DHT22;4391;48.678;9.280;2024-03-07T09:43:52;5.90;99.90
8709;DHT22;4391;48.678;9.280;2024-03-07T09:46:21;6.00;1.00
8709;DHT22;4391;48.678;9.280;2024-03-07T09:48:50;6.00;1.00
8709;DHT22;4391;48.678;9.280;2024-03-07T09:51:19;6.20;99.90
8709;DHT22;4391;48.678;9.280;2024-03-07T09:53:49;6.30;1.00
8709;DHT22;4391;48.678;9.280;2024-03-07T09:56:19;6.50;1.00
8709;DHT22;4391;48.678;9.280;2024-03-07T09:58:49;6.80;99.90
8709;DHT22;4391;48.678;9.280;2024-03-07T10:01:21;7.20;99.90
8709;DHT22;4391;48.678;9.280;2024-03-07T10:03:50;7.50;1.00
8709;DHT22;4391;48.678;9.280;2024-03-07T10:06:17;7.90;59.50
8709;DHT22;4391;48.678;9.280;2024-03-07T10:08:44;8.00;37.20
8709;DHT22;4391;48.678;9.280;2024-03-07T10:11:11;8.10;1.00
8709;DHT22;4391;48.678;9.280;2024-03-07T10:13:39;8.20;1.00
8709;DHT22;4391;48.678;9.280;2024-03-07T10:16:15;8.20;99.90
8709;DHT22;4391;48.678;9.280;2024-03-07T10:18:45;8.00;53.10
8709;DHT22;4391;48.678;9.280;2024-03-07T10:21:13;7.80;99.90
8709;DHT22;4391;48.678;9.280;2024-03-07T10:23:42;7.60;99.90
8709;DHT22;4391;48.678;9.280;2024-03-07T10:26:10;7.60;99.90
8709;DHT22;4391;48.678;9.280;2024-03-07T10:28:38;7.50;99.90
8709;DHT22;4391;48.678;9.280;2024-03-07T10:31:05;7.60;99.90
8709;DHT22;4391;48.678;9.280;2024-03-07T10:33:36;7.50;1.00
8709;DHT22;4391;48.678;9.280;2024-03-07T10:36:08;7.40;1.00
8709;DHT22;4391;48.678;9.280;2024-03-07T10:38:39;7.50;1.00
8709;DHT22;4391;48.678;9.280;2024-03-07T10:41:06;7.50;99.90
8709;DHT22;4391;48.678;9.280;2024-03-07T10:43:36;7.40;99.90
8709;DHT22;4391;48.678;9.280;2024-03-07T10:46:09;7.30;99.90
8709;DHT22;4391;48.678;9.280;2024-03-07T10:48:39;7.10;99.90
8709;DHT22;4391;48.678;9.280;2024-03-07T10:51:18;7.20;99.90
8709;DHT22;4391;48.678;9.280;2024-03-07T10:53:55;7.30;99.90
8709;DHT22;4391;48.678;9.280;2024-03-07T10:56:33;7.00;99.90
8709;DHT22;4391;48.678;9.280;2024-03-07T10:59:10;6.90;99.90
8709;DHT22;4391;48.678;9.280;2024-03-07T11:01:45;6.90;99.90
8709;DHT22;4391;48.678;9.280;2024-03-07T11:04:16;7.00;99.90
8709;DHT22;4391;48.678;9.280;2024-03-07T11:06:45;7.10;99.90
8709;DHT22;4391;48.678;9.280;2024-03-07T11:09:12;7.30;99.90
8709;DHT22;4391;48.678;9.280;2024-03-07T11:11:39;7.40;99.90
8709;DHT22;4391;48.678;9.280;2024-03-07T11:14:08;7.90;99.90
8709;DHT22;4391;48.678;9.280;2024-03-07T11:16:37;8.80;88.10
8709;DHT22;4391;48.678;9.280;2024-03-07T11:19:28;9.60;1.00
8709;DHT22;4391;48.678;9.280;2024-03-07T11:21:58;10.10;1.00
8709;DHT22;4391;48.678;9.280;2024-03-07T11:24:26;10.20;1.00
8709;DHT22;4391;48.678;9.280;2024-03-07T11:26:55;10.40;1.00
8709;DHT22;4391;48.678;9.280;2024-03-07T11:29:42;10.70;1.00
8709;DHT22;4391;48.678;9.280;2024-03-07T11:32:10;10.60;1.00
8709;DHT22;4391;48.678;9.280;2024-03-07T11:34:39;10.70;1.00
8709;DHT22;4391;48.678;9.280;2024-03-07T11:37:09;10.80;1.00
8709;DHT22;4391;48.678;9.280;2024-03-07T11:39:43;10.90;1.00
8709;DHT22;4391;48.678;9.280;2024-03-07T11:42:23;10.70;1.00
8709;DHT22;4391;48.678;9.280;2024-03-07T11:44:52;10.30;1.00
8709;DHT22;4391;48.678;9.280;2024-03-07T11:47:21;10.00;1.00
8709;DHT22;4391;48.678;9.280;2024-03-07T11:49:50;9.80;1.00
8709;DHT22;4391;48.678;9.280;2024-03-07T11:52:19;9.50;1.00
8709;DHT22;4391;48.678;9.280;2024-03-07T11:54:46;9.20;1.00
8709;DHT22;4391;48.678;9.280;2024-03-07T11:57:15;9.10;61.90
8709;DHT22;4391;48.678;9.280;2024-03-07T11:59:45;9.20;1.00
8709;DHT22;4391;48.678;9.280;2024-03-07T12:02:17;9.10;1.00
8709;DHT22;4391;48.678;9.280;2024-03-07T12:04:49;9.20;1.00
8709;DHT22;4391;48.678;9.280;2024-03-07T12:07:17;9.10;1.00
8709;DHT22;4391;48.678;9.280;2024-03-07T12:09:45;8.90;22.20
8709;DHT22;4391;48.678;9.280;2024-03-07T12:12:17;8.80;65.00
8709;DHT22;4391;48.678;9.280;2024-03-07T12:14:47;8.70;1.00
8709;DHT22;4391;48.678;9.280;2024-03-07T12:17:18;8.70;89.40
8709;DHT22;4391;48.678;9.280;2024-03-07T12:19:46;8.80;63.00
8709;DHT22;4391;48.678;9.280;2024-03-07T12:22:19;9.00;1.00
8709;DHT22;4391;48.678;9.280;2024-03-07T12:25:00;9.20;1.00
8709;DHT22;4391;48.678;9.280;2024-03-07T12:27:28;9.40;1.00
8709;DHT22;4391;48.678;9.280;2024-03-07T12:29:56;9.40;1.00
8709;DHT22;4391;48.678;9.280;2024-03-07T12:32:27;9.50;1.00
8709;DHT22;4391;48.678;9.280;2024-03-07T12:34:56;9.70;1.00
8709;DHT22;4391;48.678;9.280;2024-03-07T12:37:24;9.80;1.00
8709;DHT22;4391;48.678;9.280;2024-03-07T12:39:54;9.90;1.00
8709;DHT22;4391;48.678;9.280;2024-03-07T12:42:27;9.80;1.00
8709;DHT22;4391;48.678;9.280;2024-03-07T12:44:57;9.50;1.00
8709;DHT22;4391;48.678;9.280;2024-03-07T12:47:26;9.40;1.00
8709;DHT22;4391;48.678;9.280;2024-03-07T12:49:56;9.30;1.00
8709;DHT22;4391;48.678;9.280;2024-03-07T12:52:24;9.30;1.00
8709;DHT22;4391;48.678;9.280;2024-03-07T12:54:53;9.30;1.00
8709;DHT22;4391;48.678;9.280;2024-03-07T12:57:21;9.10;1.00
8709;DHT22;4391;48.678;9.280;2024-03-07T12:59:48;8.90;1.00
8709;DHT22;4391;48.678;9.280;2024-03-07T13:02:18;8.80;1.00
8709;DHT22;4391;48.678;9.280;2024-03-07T13:04:53;8.80;1.00
8709;DHT22;4391;48.678;9.280;2024-03-07T13:07:21;8.90;1.00
8709;DHT22;4391;48.678;9.280;2024-03-07T13:09:48;8.90;1.00
8709;DHT22;4391;48.678;9.280;2024-03-07T13:12:17;8.90;1.00
8709;DHT22;4391;48.678;9.280;2024-03-07T13:14:45;8.80;1.00
8709;DHT22;4391;48.678;9.280;2024-03-07T13:17:14;8.80;1.00
8709;DHT22;4391;48.678;9.280;2024-03-07T13:19:44;9.00;1.00
8709;DHT22;4391;48.678;9.280;2024-03-07T13:22:16;9.30;1.00
8709;DHT22;4391;48.678;9.280;2024-03-07T13:24:44;9.60;1.00
8709;DHT22;4391;48.678;9.280;2024-03-07T13:27:12;9.90;1.00
8709;DHT22;4391;48.678;9.280;2024-03-07T13:29:46;10.00;1.00
8709;DHT22;4391;48.678;9.280;2024-03-07T13:32:15;10.10;1.00
8709;DHT22;4391;48.678;9.280;2024-03-07T13:34:42;9.80;1.00
8709;DHT22;4391;48.678;9.280;2024-03-07T13:37:08;9.60;1.00
8709;DHT22;4391;48.678;9.280;2024-03-07T13:39:36;9.40;1.00
8709;DHT22;4391;48.678;9.280;2024-03-07T13:42:03;9.30;1.00
8709;DHT22;4391;48.678;9.280;2024-03-07T13:44:30;9.00;1.00
8709;DHT22;4391;48.678;9.280;2024-03-07T13:46:59;8.80;1.00
8709;DHT22;4391;48.678;9.280;2024-03-07T13:49:27;8.60;1.00
8709;DHT22;4391;48.678;9.280;2024-03-07T13:51:55;8.50;36.30
8709;DHT22;4391;48.678;9.280;2024-03-07T13:54:29;8.30;65.80
8709;DHT22;4391;48.678;9.280;2024-03-07T13:57:13;8.30;77.80
8709;DHT22;4391;48.678;9.280;2024-03-07T14:00:05;8.30;99.90
8709;DHT22;4391;48.678;9.280;2024-03-07T14:03:18;8.30;99.90
8709;DHT22;4391;48.678;9.280;2024-03-07T14:05:58;8.30;99.90
8709;DHT22;4391;48.678;9.280;2024-03-07T14:09:03;8.50;99.90
8709;DHT22;4391;48.678;9.280;2024-03-07T14:21:48;9.10;1.00
8709;DHT22;4391;48.678;9.280;2024-03-07T14:24:58;9.00;1.00
8709;DHT22;4391;48.678;9.280;2024-03-07T14:27:34;8.90;1.00
8709;DHT22;4391;48.678;9.280;2024-03-07T14:30:18;8.90;1.00
8709;DHT22;4391;48.678;9.280;2024-03-07T14:32:49;8.80;1.00
8709;DHT22;4391;48.678;9.280;2024-03-07T14:35:23;8.80;1.00
8709;DHT22;4391;48.678;9.280;2024-03-07T14:37:55;8.60;1.00
8709;DHT22;4391;48.678;9.280;2024-03-07T14:40:28;8.60;1.00
8709;DHT22;4391;48.678;9.280;2024-03-07T14:43:01;8.70;1.00
8709;DHT22;4391;48.678;9.280;2024-03-07T14:45:37;8.70;1.00
8709;DHT22;4391;48.678;9.280;2024-03-07T14:48:06;8.80;1.00
8709;DHT22;4391;48.678;9.280;2024-03-07T14:50:37;8.80;1.00
8709;DHT22;4391;48.678;9.280;2024-03-07T14:53:06;8.80;1.00
8709;DHT22;4391;48.678;9.280;2024-03-07T14:55:33;8.80;1.00
8709;DHT22;4391;48.678;9.280;2024-03-07T14:58:01;8.90;1.00
8709;DHT22;4391;48.678;9.280;2024-03-07T15:00:29;8.90;1.00
8709;DHT22;4391;48.678;9.280;2024-03-07T15:02:59;9.00;1.00
8709;DHT22;4391;48.678;9.280;2024-03-07T15:05:27;9.10;1.00
8709;DHT22;4391;48.678;9.280;2024-03-07T15:07:55;9.00;1.00
8709;DHT22;4391;48.678;9.280;2024-03-07T15:10:25;8.90;1.00
8709;DHT22;4391;48.678;9.280;2024-03-07T15:12:57;8.90;1.00
8709;DHT22;4391;48.678;9.280;2024-03-07T15:15:26;8.90;1.00
8709;DHT22;4391;48.678;9.280;2024-03-07T15:17:56;8.80;1.00
8709;DHT22;4391;48.678;9.280;2024-03-07T15:20:24;8.70;1.00
8709;DHT22;4391;48.678;9.280;2024-03-07T15:22:53;8.70;1.00
8709;DHT22;4391;48.678;9.280;2024-03-07T15:25:23;8.60;1.00
8709;DHT22;4391;48.678;9.280;2024-03-07T15:27:50;8.50;1.00
8709;DHT22;4391;48.678;9.280;2024-03-07T15:30:18;8.40;1.00
8709;DHT22;4391;48.678;9.280;2024-03-07T15:32:46;8.30;1.00
8709;DHT22;4391;48.678;9.280;2024-03-07T15:35:15;8.20;1.00
8709;DHT22;4391;48.678;9.280;2024-03-07T15:37:45;8.00;1.00
8709;DHT22;4391;48.678;9.280;2024-03-07T15:40:15;7.90;1.00
8709;DHT22;4391;48.678;9.280;2024-03-07T15:42:45;7.80;19.00
8709;DHT22;4391;48.678;9.280;2024-03-07T15:45:15;7.70;1.00
8709;DHT22;4391;48.678;9.280;2024-03-07T15:47:45;7.70;99.90
8709;DHT22;4391;48.678;9.280;2024-03-07T15:50:12;7.60;99.90
8709;DHT22;4391;48.678;9.280;2024-03-07T15:52:42;7.60;99.90
8709;DHT22;4391;48.678;9.280;2024-03-07T15:55:10;7.50;99.90
8709;DHT22;4391;48.678;9.280;2024-03-07T15:57:44;7.50;99.50
8709;DHT22;4391;48.678;9.280;2024-03-07T16:00:14;7.50;99.90
8709;DHT22;4391;48.678;9.280;2024-03-07T16:02:52;7.50;99.90
8709;DHT22;4391;48.678;9.280;2024-03-07T16:05:20;7.40;99.90
8709;DHT22;4391;48.678;9.280;2024-03-07T16:07:50;7.40;99.90
8709;DHT22;4391;48.678;9.280;2024-03-07T16:10:17;7.30;99.90
8709;DHT22;4391;48.678;9.280;2024-03-07T16:12:46;7.40;99.90
8709;DHT22;4391;48.678;9.280;2024-03-07T16:15:14;7.30;99.90
8709;DHT22;4391;48.678;9.280;2024-03-07T16:17:41;7.30;99.90
8709;DHT22;4391;48.678;9.280;2024-03-07T16:20:11;7.30;99.90
8709;DHT22;4391;48.678;9.280;2024-03-07T16:23:00;7.30;99.90
8709;DHT22;4391;48.678;9.280;2024-03-07T16:25:30;7.20;99.90
8709;DHT22;4391;48.678;9.280;2024-03-07T16:28:01;7.10;99.90
8709;DHT22;4391;48.678;9.280;2024-03-07T16:30:31;7.10;99.90
8709;DHT22;4391;48.678;9.280;2024-03-07T16:32:58;7.10;99.90
8709;DHT22;4391;48.678;9.280;2024-03-07T16:35:26;7.10;99.90
8709;DHT22;4391;48.678;9.280;2024-03-07T16:37:56;7.00;99.90
8709;DHT22;4391;48.678;9.280;2024-03-07T16:40:25;7.00;1.00
8709;DHT22;4391;48.678;9.280;2024-03-07T16:42:53;7.00;1.00
8709;DHT22;4391;48.678;9.280;2024-03-07T16:45:23;7.00;1.00
8709;DHT22;4391;48.678;9.280;2024-03-07T16:47:53;6.90;1.00